createdAt,value
2022-12-13T00:00:30.628Z,-1.67
2022-12-13T00:03:14.210Z,-1.63
2022-12-13T00:05:44.000Z,-1.62
2022-12-13T00:08:07.854Z,-1.60
2022-12-13T00:10:31.528Z,-1.59
2022-12-13T00:12:54.939Z,-1.60
2022-12-13T00:15:18.615Z,-1.63
2022-12-13T00:17:42.449Z,-1.68
2022-12-13T00:20:07.380Z,-1.73
2022-12-13T00:22:31.058Z,-1.76
2022-12-13T00:24:55.890Z,-1.78
2022-12-13T00:27:19.314Z,-1.78
2022-12-13T00:29:43.684Z,-1.78
2022-12-13T00:32:07.346Z,-1.75
2022-12-13T00:34:31.080Z,-1.71
2022-12-13T00:36:55.193Z,-1.70
2022-12-13T00:39:19.068Z,-1.71
2022-12-13T00:41:44.152Z,-1.70
2022-12-13T00:44:08.149Z,-1.69
2022-12-13T00:46:32.048Z,-1.69
2022-12-13T00:48:57.831Z,-1.70
2022-12-13T00:51:22.346Z,-1.70
2022-12-13T00:53:46.093Z,-1.71
2022-12-13T00:56:13.161Z,-1.70
2022-12-13T00:58:36.609Z,-1.67
2022-12-13T01:01:09.012Z,-1.63
2022-12-13T01:03:32.733Z,-1.60
2022-12-13T01:08:40.077Z,-1.57
2022-12-13T01:11:04.482Z,-1.57
2022-12-13T01:13:27.899Z,-1.58
2022-12-13T01:15:51.624Z,-1.59
2022-12-13T01:18:17.976Z,-1.62
2022-12-13T01:20:41.390Z,-1.63
2022-12-13T01:23:05.564Z,-1.66
2022-12-13T01:25:29.443Z,-1.68
2022-12-13T01:27:52.848Z,-1.67
2022-12-13T01:30:16.396Z,-1.65
2022-12-13T01:32:39.846Z,-1.63
2022-12-13T01:35:03.377Z,-1.62
2022-12-13T01:37:27.555Z,-1.63
2022-12-13T01:39:51.085Z,-1.62
2022-12-13T01:42:15.377Z,-1.65
2022-12-13T01:45:20.661Z,-1.68
2022-12-13T01:47:48.217Z,-1.74
2022-12-13T01:50:16.829Z,-1.78
2022-12-13T01:52:42.515Z,-1.80
2022-12-13T01:55:09.043Z,-1.83
2022-12-13T01:57:34.198Z,-1.80
2022-12-13T01:59:58.041Z,-1.79
2022-12-13T02:02:22.720Z,-1.78
2022-12-13T02:04:54.505Z,-1.78
2022-12-13T02:07:23.091Z,-1.80
2022-12-13T02:09:48.421Z,-1.83
2022-12-13T02:12:20.845Z,-1.85
2022-12-13T02:14:44.850Z,-1.87
2022-12-13T02:17:19.178Z,-1.89
2022-12-13T02:20:21.424Z,-1.91
2022-12-13T02:23:06.883Z,-1.91
2022-12-13T02:26:03.522Z,-1.89
2022-12-13T02:28:42.979Z,-1.85
2022-12-13T02:31:11.906Z,-1.85
2022-12-13T02:33:50.166Z,-1.82
2022-12-13T02:36:19.300Z,-1.78
2022-12-13T02:38:52.020Z,-1.75
2022-12-13T02:41:22.456Z,-1.71
2022-12-13T02:43:52.927Z,-1.68
2022-12-13T02:46:29.732Z,-1.63
2022-12-13T02:48:56.807Z,-1.59
2022-12-13T02:51:22.259Z,-1.54
2022-12-13T02:53:46.071Z,-1.50
2022-12-13T02:56:09.651Z,-1.49
2022-12-13T02:58:35.705Z,-1.50
2022-12-13T03:01:07.568Z,-1.50
2022-12-13T03:04:01.532Z,-1.54
2022-12-13T03:06:35.085Z,-1.56
2022-12-13T03:09:10.500Z,-1.57
2022-12-13T03:12:01.122Z,-1.56
2022-12-13T03:14:30.532Z,-1.56
2022-12-13T03:16:55.716Z,-1.56
2022-12-13T03:19:19.545Z,-1.55
2022-12-13T03:21:48.069Z,-1.52
2022-12-13T03:24:13.199Z,-1.48
2022-12-13T03:26:38.497Z,-1.43
2022-12-13T03:29:01.959Z,-1.38
2022-12-13T03:31:25.609Z,-1.35
2022-12-13T03:33:49.031Z,-1.34
2022-12-13T03:36:13.561Z,-1.32
2022-12-13T03:38:39.389Z,-1.30
2022-12-13T03:41:05.607Z,-1.31
2022-12-13T03:43:29.764Z,-1.31
2022-12-13T03:45:54.354Z,-1.30
2022-12-13T03:48:22.620Z,-1.33
2022-12-13T03:50:47.552Z,-1.34
2022-12-13T03:53:22.277Z,-1.35
2022-12-13T03:55:54.644Z,-1.35
2022-12-13T03:58:18.407Z,-1.37
2022-12-13T04:00:41.961Z,-1.39
2022-12-13T04:03:05.604Z,-1.38
2022-12-13T04:05:29.953Z,-1.37
2022-12-13T04:07:53.582Z,-1.33
2022-12-13T04:10:25.462Z,-1.30
2022-12-13T04:13:08.140Z,-1.27
2022-12-13T04:15:31.878Z,-1.24
2022-12-13T04:17:55.525Z,-1.21
2022-12-13T04:20:18.959Z,-1.18
2022-12-13T04:22:42.808Z,-1.20
2022-12-13T04:25:07.352Z,-1.23
2022-12-13T04:27:30.787Z,-1.25
2022-12-13T04:29:54.166Z,-1.28
2022-12-13T04:32:26.108Z,-1.31
2022-12-13T04:34:50.854Z,-1.33
2022-12-13T04:37:14.373Z,-1.36
2022-12-13T04:39:37.861Z,-1.38
2022-12-13T04:42:01.659Z,-1.39
2022-12-13T04:44:31.449Z,-1.39
2022-12-13T04:47:01.157Z,-1.41
2022-12-13T04:49:25.075Z,-1.42
2022-12-13T04:51:48.569Z,-1.43
2022-12-13T04:54:23.606Z,-1.45
2022-12-13T04:56:48.305Z,-1.46
2022-12-13T04:59:11.868Z,-1.49
2022-12-13T05:01:35.984Z,-1.49
2022-12-13T05:04:01.577Z,-1.50
2022-12-13T05:06:26.610Z,-1.54
2022-12-13T05:08:50.273Z,-1.60
2022-12-13T05:11:14.635Z,-1.66
2022-12-13T05:13:38.772Z,-1.70
2022-12-13T05:16:06.329Z,-1.73
2022-12-13T05:18:30.731Z,-1.73
2022-12-13T05:20:54.971Z,-1.74
2022-12-13T05:23:22.616Z,-1.73
2022-12-13T05:25:47.040Z,-1.70
2022-12-13T05:28:27.625Z,-1.68
2022-12-13T05:30:53.031Z,-1.65
2022-12-13T05:33:17.896Z,-1.67
2022-12-13T05:35:42.833Z,-1.69
2022-12-13T05:38:06.508Z,-1.73
2022-12-13T05:40:31.578Z,-1.73
2022-12-13T05:43:00.934Z,-1.75
2022-12-13T05:45:26.045Z,-1.75
2022-12-13T05:47:49.558Z,-1.76
2022-12-13T05:50:14.576Z,-1.75
2022-12-13T05:52:38.155Z,-1.75
2022-12-13T05:55:02.067Z,-1.77
2022-12-13T05:57:25.593Z,-1.75
2022-12-13T05:59:49.252Z,-1.74
2022-12-13T06:02:16.896Z,-1.72
2022-12-13T06:04:45.023Z,-1.72
2022-12-13T06:07:08.548Z,-1.73
2022-12-13T06:09:32.651Z,-1.75
2022-12-13T06:12:03.547Z,-1.80
2022-12-13T06:14:36.499Z,-1.87
2022-12-13T06:17:00.193Z,-1.92
2022-12-13T06:19:24.786Z,-1.98
2022-12-13T06:21:48.278Z,-2.02
2022-12-13T06:24:11.757Z,-2.06
2022-12-13T06:26:35.211Z,-2.10
2022-12-13T06:28:58.644Z,-2.14
2022-12-13T06:31:22.174Z,-2.14
2022-12-13T06:33:45.737Z,-2.15
2022-12-13T06:36:10.796Z,-2.18
2022-12-13T06:38:34.253Z,-2.21
2022-12-13T06:41:09.094Z,-2.19
2022-12-13T06:43:32.812Z,-2.19
2022-12-13T06:45:56.327Z,-2.17
2022-12-13T06:48:20.391Z,-2.16
2022-12-13T06:50:44.217Z,-2.16
2022-12-13T06:53:07.725Z,-2.17
2022-12-13T06:55:31.183Z,-2.18
2022-12-13T06:57:56.493Z,-2.20
2022-12-13T07:00:22.337Z,-2.22
2022-12-13T07:02:53.294Z,-2.27
2022-12-13T07:05:17.643Z,-2.30
2022-12-13T07:07:41.059Z,-2.33
2022-12-13T07:10:05.855Z,-2.34
2022-12-13T07:12:36.462Z,-2.36
2022-12-13T07:14:59.877Z,-2.36
2022-12-13T07:17:32.641Z,-2.36
2022-12-13T07:19:58.167Z,-2.35
2022-12-13T07:22:24.737Z,-2.34
2022-12-13T07:24:48.391Z,-2.33
2022-12-13T07:27:12.138Z,-2.34
2022-12-13T07:29:35.569Z,-2.35
2022-12-13T07:32:01.405Z,-2.37
2022-12-13T07:34:25.612Z,-2.42
2022-12-13T07:36:50.779Z,-2.45
2022-12-13T07:39:14.214Z,-2.46
2022-12-13T07:41:37.817Z,-2.46
2022-12-13T07:44:03.187Z,-2.47
2022-12-13T07:46:32.332Z,-2.48
2022-12-13T07:49:01.736Z,-2.47
2022-12-13T07:51:26.738Z,-2.43
2022-12-13T07:53:50.219Z,-2.40
2022-12-13T07:56:14.193Z,-2.36
2022-12-13T07:58:37.971Z,-2.30
2022-12-13T08:01:05.273Z,-2.28
2022-12-13T08:03:29.672Z,-2.29
2022-12-13T08:06:00.989Z,-2.29
2022-12-13T08:08:30.847Z,-2.31
2022-12-13T08:10:55.405Z,-2.34
2022-12-13T08:13:25.034Z,-2.34
2022-12-13T08:15:48.467Z,-2.38
2022-12-13T08:18:13.059Z,-2.41
2022-12-13T08:20:37.062Z,-2.42
2022-12-13T08:23:02.171Z,-2.42
2022-12-13T08:25:26.738Z,-2.38
2022-12-13T08:27:50.533Z,-2.36
2022-12-13T08:30:20.484Z,-2.32
2022-12-13T08:32:48.852Z,-2.27
2022-12-13T08:35:12.346Z,-2.21
2022-12-13T08:37:35.934Z,-2.16
2022-12-13T08:39:59.656Z,-2.14
2022-12-13T08:42:24.636Z,-2.14
2022-12-13T08:44:50.279Z,-2.16
2022-12-13T08:47:23.291Z,-2.20
2022-12-13T08:49:48.507Z,-2.24
2022-12-13T08:52:11.953Z,-2.28
2022-12-13T08:54:35.427Z,-2.29
2022-12-13T08:56:59.437Z,-2.27
2022-12-13T08:59:24.753Z,-2.24
2022-12-13T09:01:48.320Z,-2.21
2022-12-13T09:04:17.750Z,-2.16
2022-12-13T09:06:55.461Z,-2.10
2022-12-13T09:09:19.590Z,-2.04
2022-12-13T09:11:43.039Z,-1.99
2022-12-13T09:14:06.922Z,-1.99
2022-12-13T09:16:37.700Z,-1.99
2022-12-13T09:19:06.544Z,-2.01
2022-12-13T09:21:45.541Z,-2.02
2022-12-13T09:24:23.634Z,-2.03
2022-12-13T09:26:48.272Z,-2.04
2022-12-13T09:29:20.928Z,-2.06
2022-12-13T09:31:49.544Z,-2.07
2022-12-13T09:34:16.503Z,-2.07
2022-12-13T09:36:40.251Z,-2.07
2022-12-13T09:39:04.649Z,-2.06
2022-12-13T09:41:32.479Z,-2.05
2022-12-13T09:44:01.287Z,-2.02
2022-12-13T09:46:34.971Z,-2.04
2022-12-13T09:49:23.157Z,-2.05
2022-12-13T09:52:04.296Z,-2.02
2022-12-13T09:54:34.186Z,-1.99
2022-12-13T09:56:58.259Z,-1.98
2022-12-13T09:59:27.055Z,-1.99
2022-12-13T10:01:50.807Z,-2.01
2022-12-13T10:04:18.520Z,-2.02
2022-12-13T10:06:42.033Z,-2.06
2022-12-13T10:09:10.963Z,-2.09
2022-12-13T10:11:34.674Z,-2.09
2022-12-13T10:14:02.401Z,-2.08
2022-12-13T10:16:36.137Z,-2.07
2022-12-13T10:19:02.349Z,-2.04
2022-12-13T10:21:32.043Z,-2.03
2022-12-13T10:26:40.754Z,-2.03
2022-12-13T10:29:06.941Z,-2.00
2022-12-13T10:31:38.542Z,-2.01
2022-12-13T10:34:02.231Z,-2.05
2022-12-13T10:36:34.445Z,-2.11
2022-12-13T10:38:58.505Z,-2.15
2022-12-13T10:41:31.671Z,-2.17
2022-12-13T10:44:20.284Z,-2.18
2022-12-13T10:46:50.403Z,-2.22
2022-12-13T10:49:19.462Z,-2.20
2022-12-13T10:51:43.234Z,-2.18
2022-12-13T10:54:16.127Z,-2.16
2022-12-13T10:56:46.228Z,-2.16
2022-12-13T10:59:17.312Z,-2.15
2022-12-13T11:01:41.396Z,-2.15
2022-12-13T11:04:27.152Z,-2.11
2022-12-13T11:06:52.064Z,-2.04
2022-12-13T11:09:23.150Z,-1.98
2022-12-13T11:11:51.809Z,-1.95
2022-12-13T11:14:31.585Z,-1.90
2022-12-13T11:16:59.210Z,-1.88
2022-12-13T11:19:29.655Z,-1.87
2022-12-13T11:21:54.084Z,-1.85
2022-12-13T11:24:23.809Z,-1.87
2022-12-13T11:26:54.128Z,-1.92
2022-12-13T11:29:48.322Z,-1.98
2022-12-13T11:32:23.170Z,-2.05
2022-12-13T11:34:56.689Z,-2.12
2022-12-13T11:37:28.505Z,-2.15
2022-12-13T11:40:01.816Z,-2.16
2022-12-13T11:42:29.438Z,-2.22
2022-12-13T11:45:00.403Z,-2.25
2022-12-13T11:47:31.589Z,-2.26
2022-12-13T11:49:58.889Z,-2.27
2022-12-13T11:52:27.710Z,-2.28
2022-12-13T11:54:58.493Z,-2.30
2022-12-13T11:57:37.602Z,-2.31
2022-12-13T12:00:15.988Z,-2.34
2022-12-13T12:03:06.415Z,-2.37
2022-12-13T12:05:34.590Z,-2.33
2022-12-13T12:08:32.359Z,-2.23
2022-12-13T12:10:51.075Z,-2.06
2022-12-13T12:13:19.456Z,-1.95
2022-12-13T12:15:50.082Z,-1.79
2022-12-13T12:18:19.007Z,-1.62
2022-12-13T12:20:56.356Z,-1.44
2022-12-13T12:23:30.481Z,-1.26
2022-12-13T12:26:05.985Z,-1.07
2022-12-13T12:28:44.118Z,-0.86
2022-12-13T12:31:15.614Z,-0.67
2022-12-13T12:33:51.929Z,-0.53
2022-12-13T12:36:32.021Z,-0.42
2022-12-13T12:39:26.467Z,-0.34
2022-12-13T12:42:03.241Z,-0.26
2022-12-13T12:44:34.114Z,-0.26
2022-12-13T12:50:22.918Z,-0.24
2022-12-13T12:52:58.871Z,-0.21
2022-12-13T12:55:41.732Z,-0.20
2022-12-13T12:58:15.310Z,-0.24
2022-12-13T13:00:48.150Z,-0.35
2022-12-13T13:03:23.035Z,-0.47
2022-12-13T13:05:55.831Z,-0.60
2022-12-13T13:08:29.667Z,-0.74
2022-12-13T13:10:55.259Z,-0.82
2022-12-13T13:13:46.240Z,-0.84
2022-12-13T13:16:30.624Z,-0.83
2022-12-13T13:18:55.231Z,-0.83
2022-12-13T13:21:46.667Z,-0.83
2022-12-13T13:24:17.897Z,-0.86
2022-12-13T13:26:43.144Z,-0.90
2022-12-13T13:29:34.909Z,-0.87
2022-12-13T13:32:02.159Z,-0.81
2022-12-13T13:34:30.828Z,-0.78
2022-12-13T13:36:56.468Z,-0.78
2022-12-13T13:39:38.669Z,-0.75
2022-12-13T13:42:17.927Z,-0.71
2022-12-13T13:45:00.264Z,-0.71
2022-12-13T13:47:48.152Z,-0.77
2022-12-13T13:50:46.614Z,-0.83
2022-12-13T13:53:55.261Z,-0.87
2022-12-13T13:56:43.703Z,-0.92
2022-12-13T13:59:42.261Z,-0.98
2022-12-13T14:02:35.138Z,-1.12
2022-12-13T14:05:31.285Z,-1.27
2022-12-13T14:08:20.084Z,-1.45
2022-12-13T14:11:17.274Z,-1.66
2022-12-13T14:14:21.812Z,-1.87
2022-12-13T14:17:38.780Z,-2.06
2022-12-13T14:20:39.478Z,-2.22
2022-12-13T14:23:10.650Z,-2.37
2022-12-13T14:25:58.399Z,-2.48
2022-12-13T14:28:43.699Z,-2.56
2022-12-13T14:31:21.455Z,-2.66
2022-12-13T14:33:47.459Z,-2.74
2022-12-13T14:36:16.454Z,-2.81
2022-12-13T14:38:39.933Z,-2.86
2022-12-13T14:41:05.439Z,-2.91
2022-12-13T14:43:30.459Z,-2.99
2022-12-13T14:45:57.304Z,-3.04
2022-12-13T14:48:28.080Z,-3.06
2022-12-13T14:50:53.881Z,-3.09
2022-12-13T14:53:25.593Z,-3.13
2022-12-13T14:56:05.768Z,-3.15
2022-12-13T14:58:29.507Z,-3.19
2022-12-13T15:00:56.101Z,-3.20
2022-12-13T15:03:24.715Z,-3.21
2022-12-13T15:05:54.353Z,-3.24
2022-12-13T15:08:19.324Z,-3.28
2022-12-13T15:10:48.311Z,-3.32
2022-12-13T15:13:25.486Z,-3.37
2022-12-13T15:15:56.331Z,-3.39
2022-12-13T15:18:23.223Z,-3.40
2022-12-13T15:20:50.128Z,-3.39
2022-12-13T15:23:48.858Z,-3.41
2022-12-13T15:26:28.350Z,-3.42
2022-12-13T15:28:56.036Z,-3.44
2022-12-13T15:31:18.985Z,-3.47
2022-12-13T15:33:48.577Z,-3.48
2022-12-13T15:36:16.945Z,-3.48
2022-12-13T15:38:46.343Z,-3.50
2022-12-13T15:41:17.670Z,-3.49
2022-12-13T15:43:47.240Z,-3.47
2022-12-13T15:46:11.127Z,-3.47
2022-12-13T15:48:37.819Z,-3.48
2022-12-13T15:51:10.708Z,-3.47
2022-12-13T15:53:35.083Z,-3.47
2022-12-13T15:55:59.656Z,-3.46
2022-12-13T15:58:26.962Z,-3.47
2022-12-13T16:00:50.794Z,-3.48
2022-12-13T16:03:19.056Z,-3.49
2022-12-13T16:05:50.312Z,-3.49
2022-12-13T16:08:25.669Z,-3.49
2022-12-13T16:10:52.320Z,-3.48
2022-12-13T16:13:26.073Z,-3.47
2022-12-13T16:15:51.617Z,-3.47
2022-12-13T16:18:26.910Z,-3.48
2022-12-13T16:20:50.503Z,-3.50
2022-12-13T16:23:21.239Z,-3.49
2022-12-13T16:25:51.758Z,-3.48
2022-12-13T16:28:16.719Z,-3.50
2022-12-13T16:31:15.612Z,-3.52
2022-12-13T16:33:39.226Z,-3.54
2022-12-13T16:36:03.040Z,-3.54
2022-12-13T16:38:27.546Z,-3.56
2022-12-13T16:40:55.705Z,-3.58
2022-12-13T16:43:25.385Z,-3.59
2022-12-13T16:45:53.896Z,-3.61
2022-12-13T16:48:18.084Z,-3.61
2022-12-13T16:50:44.640Z,-3.64
2022-12-13T16:53:11.643Z,-3.66
2022-12-13T16:55:38.406Z,-3.63
2022-12-13T16:58:03.733Z,-3.62
2022-12-13T17:00:29.081Z,-3.65
2022-12-13T17:02:52.618Z,-3.65
2022-12-13T17:05:16.944Z,-3.66
2022-12-13T17:07:40.382Z,-3.66
2022-12-13T17:10:05.504Z,-3.66
2022-12-13T17:12:29.098Z,-3.66
2022-12-13T17:14:53.736Z,-3.66
2022-12-13T17:17:17.877Z,-3.67
2022-12-13T17:19:41.652Z,-3.69
2022-12-13T17:22:05.394Z,-3.72
2022-12-13T17:24:30.829Z,-3.73
2022-12-13T17:26:56.157Z,-3.73
2022-12-13T17:29:19.922Z,-3.74
2022-12-13T17:31:44.185Z,-3.75
2022-12-13T17:34:07.690Z,-3.77
2022-12-13T17:36:31.807Z,-3.80
2022-12-13T17:38:55.361Z,-3.82
2022-12-13T17:41:19.091Z,-3.85
2022-12-13T17:43:43.736Z,-3.86
2022-12-13T17:46:11.253Z,-3.86
2022-12-13T17:48:40.231Z,-3.88
2022-12-13T17:51:05.854Z,-3.88
2022-12-13T17:53:29.712Z,-3.89
2022-12-13T17:55:58.067Z,-3.92
2022-12-13T17:58:21.764Z,-3.93
2022-12-13T18:00:45.214Z,-3.94
2022-12-13T18:03:08.689Z,-3.93
2022-12-13T18:05:33.263Z,-3.94
2022-12-13T18:07:56.763Z,-3.96
2022-12-13T18:10:23.598Z,-3.98
2022-12-13T18:12:49.879Z,-3.97
2022-12-13T18:15:13.476Z,-3.96
2022-12-13T18:18:09.608Z,-3.93
2022-12-13T18:20:20.721Z,-3.94
2022-12-13T18:22:48.336Z,-3.93
2022-12-13T18:25:14.940Z,-3.93
2022-12-13T18:27:38.426Z,-3.92
2022-12-13T18:30:02.243Z,-3.91
2022-12-13T18:32:25.721Z,-3.89
2022-12-13T18:34:49.186Z,-3.88
2022-12-13T18:37:18.343Z,-3.86
2022-12-13T18:39:41.916Z,-3.85
2022-12-13T18:42:18.334Z,-3.86
2022-12-13T18:44:41.802Z,-3.87
2022-12-13T18:47:20.998Z,-3.89
2022-12-13T18:49:55.470Z,-3.91
2022-12-13T18:52:20.227Z,-3.92
2022-12-13T18:54:45.387Z,-3.94
2022-12-13T18:57:19.605Z,-3.96
2022-12-13T18:59:43.062Z,-3.98
2022-12-13T19:02:18.286Z,-3.98
2022-12-13T19:04:42.574Z,-4.02
2022-12-13T19:07:19.673Z,-4.04
2022-12-13T19:09:43.548Z,-4.04
2022-12-13T19:12:18.064Z,-4.06
2022-12-13T19:14:41.534Z,-4.09
2022-12-13T19:17:05.560Z,-4.12
2022-12-13T19:19:29.271Z,-4.13
2022-12-13T19:21:52.811Z,-4.14
2022-12-13T19:24:17.640Z,-4.15
2022-12-13T19:26:41.257Z,-4.16
2022-12-13T19:29:04.933Z,-4.18
2022-12-13T19:31:32.282Z,-4.18
2022-12-13T19:33:57.927Z,-4.21
2022-12-13T19:36:21.594Z,-4.25
2022-12-13T19:38:46.549Z,-4.28
2022-12-13T19:41:12.830Z,-4.28
2022-12-13T19:43:36.819Z,-4.28
2022-12-13T19:46:02.653Z,-4.31
2022-12-13T19:48:26.116Z,-4.36
2022-12-13T19:50:49.576Z,-4.39
2022-12-13T19:53:13.692Z,-4.41
2022-12-13T19:55:41.649Z,-4.44
2022-12-13T19:58:05.097Z,-4.42
2022-12-13T20:00:29.022Z,-4.43
2022-12-13T20:02:52.599Z,-4.46
2022-12-13T20:05:16.485Z,-4.47
2022-12-13T20:07:40.640Z,-4.46
2022-12-13T20:10:04.757Z,-4.49
2022-12-13T20:12:29.179Z,-4.53
2022-12-13T20:14:52.934Z,-4.56
2022-12-13T20:17:16.431Z,-4.59
2022-12-13T20:19:40.087Z,-4.64
2022-12-13T20:22:05.050Z,-4.68
2022-12-13T20:24:28.690Z,-4.70
2022-12-13T20:26:52.184Z,-4.74
2022-12-13T20:29:15.993Z,-4.79
2022-12-13T20:31:40.419Z,-4.83
2022-12-13T20:34:06.070Z,-4.89
2022-12-13T20:36:30.829Z,-4.93
2022-12-13T20:38:55.784Z,-4.97
2022-12-13T20:41:19.702Z,-5.02
2022-12-13T20:43:44.085Z,-5.07
2022-12-13T20:46:14.468Z,-5.08
2022-12-13T20:48:39.227Z,-5.08
2022-12-13T20:51:04.930Z,-5.10
2022-12-13T20:53:31.402Z,-5.14
2022-12-13T20:55:57.437Z,-5.16
2022-12-13T20:58:21.149Z,-5.18
2022-12-13T21:00:44.633Z,-5.16
2022-12-13T21:03:08.171Z,-5.19
2022-12-13T21:05:32.259Z,-5.19
2022-12-13T21:08:14.369Z,-5.22
2022-12-13T21:10:39.663Z,-5.25
2022-12-13T21:13:03.347Z,-5.27
2022-12-13T21:15:26.806Z,-5.28
2022-12-13T21:17:50.228Z,-5.29
2022-12-13T21:20:13.735Z,-5.30
2022-12-13T21:22:37.317Z,-5.33
2022-12-13T21:25:01.016Z,-5.37
2022-12-13T21:27:24.790Z,-5.40
2022-12-13T21:29:48.261Z,-5.42
2022-12-13T21:32:11.907Z,-5.45
2022-12-13T21:34:37.080Z,-5.48
2022-12-13T21:37:00.487Z,-5.49
2022-12-13T21:39:27.214Z,-5.47
2022-12-13T21:41:50.746Z,-5.44
2022-12-13T21:44:15.776Z,-5.40
2022-12-13T21:49:23.126Z,-5.31
2022-12-13T21:51:48.393Z,-5.28
2022-12-13T21:54:12.333Z,-5.24
2022-12-13T21:56:54.470Z,-5.25
2022-12-13T21:59:21.397Z,-5.27
2022-12-13T22:02:08.769Z,-5.31
2022-12-13T22:04:33.702Z,-5.35
2022-12-13T22:06:57.305Z,-5.41
2022-12-13T22:09:20.938Z,-5.44
2022-12-13T22:11:44.344Z,-5.45
2022-12-13T22:14:07.786Z,-5.48
2022-12-13T22:16:31.454Z,-5.49
2022-12-13T22:18:55.699Z,-5.50
2022-12-13T22:21:19.225Z,-5.51
2022-12-13T22:23:42.774Z,-5.52
2022-12-13T22:26:07.636Z,-5.54
2022-12-13T22:28:31.549Z,-5.54
2022-12-13T22:30:55.124Z,-5.53
2022-12-13T22:33:18.562Z,-5.52
2022-12-13T22:35:42.058Z,-5.51
2022-12-13T22:38:05.516Z,-5.50
2022-12-13T22:40:28.984Z,-5.48
2022-12-13T22:42:52.448Z,-5.48
2022-12-13T22:45:16.860Z,-5.47
2022-12-13T22:47:40.358Z,-5.49
2022-12-13T22:50:06.093Z,-5.51
2022-12-13T22:52:33.798Z,-5.55
2022-12-13T22:54:58.308Z,-5.61
2022-12-13T22:57:21.700Z,-5.64
2022-12-13T22:59:45.150Z,-5.69
2022-12-13T23:02:09.172Z,-5.74
2022-12-13T23:04:33.558Z,-5.76
2022-12-13T23:06:57.065Z,-5.75
2022-12-13T23:09:21.456Z,-5.70
2022-12-13T23:12:03.300Z,-5.66
2022-12-13T23:14:28.636Z,-5.63
2022-12-13T23:16:52.544Z,-5.61
2022-12-13T23:19:40.919Z,-5.60
2022-12-13T23:22:00.902Z,-5.62
2022-12-13T23:24:25.002Z,-5.65
2022-12-13T23:26:48.667Z,-5.70
2022-12-13T23:29:12.829Z,-5.72
2022-12-13T23:31:38.449Z,-5.74
2022-12-13T23:34:02.498Z,-5.77
2022-12-13T23:36:27.124Z,-5.78
2022-12-13T23:38:51.552Z,-5.79
2022-12-13T23:41:23.320Z,-5.77
2022-12-13T23:43:48.614Z,-5.74
2022-12-13T23:46:15.258Z,-5.72
2022-12-13T23:48:39.240Z,-5.68
2022-12-13T23:51:04.216Z,-5.65
2022-12-13T23:53:29.115Z,-5.66
2022-12-13T23:55:52.851Z,-5.69
2022-12-13T23:58:17.619Z,-5.72
